메인 페이지
METAR-TAF:

METAR-TAF

공항 :

루안다 콰트루 드 페베레이루 공항

루안다, 앙골라

위도: 08-51S, 경도: 013-14E, 고도: 74m

현재 날씨관측

예보는 26분 전, 19:00시(UTC)에 발표되었습니다.
남서9kt
온도 23°C
습도 83%
기압 1011 hPa
시정 10km 이상
고도 2100ft 상공 구름 조금

METAR: FNLU 201900Z 23009KT 9999 FEW021 23/20 Q1011 NOSIG

시각: 20:26 (19:26 UTC)

예보

예보는 2 시간 41분 전, 16:45시(UTC)에 발표되었습니다.
예보 대상 시간: 20일 18시부터 21일 24시까지 (UTC)
9kt
시정 10km 이상
고도 2000ft 상공 구름 조금
전환 중
20일 18시부터 20일 20시까지 (UTC)
남서7kt
고도 2200ft 상공 구름 보통
일시적
20일 23시부터 21일 03시까지 (UTC)
6kt
시정: 8000m
고도 1600ft 상공 구름 보통
고도 2300ft 상공 구름 많음
전환 중
21일 05시부터 21일 07시까지 (UTC)
여러 방향의 바람 3kt
시정: 5000m
고도 1800ft 상공 구름 조금
고도 2300ft 상공 흐림
박무

TAF: FNLU 201645Z 2018/2124 27009KT 9999 FEW020 BECMG 2018/2020 22007KT SCT022 TEMPO 2023/2103 17006KT 8000 SCT016 BKN023 BECMG 2105/2107 VRB03KT 5000 BR FEW018 OVC023

4,000개 이상의 공항 관측 자료 및 예보 (METAR 및 TAF 보고).

지도상에서 검색 가능한 기상관측소가 노란 점과 빨간 점으로 표시되어 있습니다.

기상관측소 명을 보려면 표시 위로 마우스를 이동하세요.

날씨 관측과 예보를 보려면 클릭하세요.

지도 변경 : 확대하려면 엑스 표시가 있는 녹색 버튼, 축소하려면 빼기 표시가 있는 녹색 버튼, 다음 페이지의 지도를 보려면 녹색 화살표를 클릭하세요.


METAR-TAF: